Lincolnshire, Illinois
Current Conditions -  °F | °C
As of 5:52 PM on Saturday 22 Nov 2014 (Local Time) from KPWK Reporting Station
Overcast Overcast  
Wind Chill: 51°   Ceiling: 4900
Heat Index: 51°   Visibility: 9mi
Dew Point: 46°   Wind: 9mph
Humidity: 83%   Direction: 200°SSW
Pressure: 29.86"   Gusts: NA
Location:  42.19°N, 87.91°W
Report Text: KPWK 222352Z 20008KT 9SM OVC049 11/08 A2986 RMK AO2 SLP116 T01060078 10106 20050 58005
Loading
Personal Weather Stations






























Interactive Weather Map New forecast layout! Learn more

10-Day Weather Forecast

Advertisements
Track Severe Weather on mobile